Airfield :
LOGIN :

Register | Disclaimer

   EN    FR    IT 

 










Legend :    VFR   Marginal VFR   IFR   Intensive IFR   Very Intensive IFR
Visi :
Ceiling :
>= 8 km
>= 3000ft
5 to 8 km
1000 to 3000 ft
1500m to 5 km
500 to 1000 ft
800 to 1500m
200 to 500 ft
< 800m
< 200 ft
Symbols :   Thunderstorms  Fog  Heavy snow  Heavy precipitations  Wind > 20 kt
SIGMETs :     Misc.  Thunderstorms  Icing  Turbulence  Mountain Waves  Volcanic Ashes







- Airport Elevation : 776 ft
- IATA code : RMS


ETAR - Ramstein Air Base

CURRENT METAR :
  • 130556Z 06005KT 9999 CLR M04/M03 A3005 RMK AO2A SLP195 11015 21053 57013 $

EXPIRED METARs :
  • 130456Z 00000KT 9999 CLR M05/M06 A3006 RMK AO2A SLP199 $
  • 130356Z 11003KT 9999 CLR M03/M04 A3008 RMK AO2A SLP203 $

TAF TAF ETAR
Valid from the 13 at 02:00 until the 14 at 08:00 UTC


130204Z 1302/1408 07009KT 9999 FEW010 BKN020 QNH3000INS
BECMG 1309/1310 07010G15KT 9999 SCT015 BKN020 QNH2995INS
BECMG 1314/1315 06009KT 9999 SCT015 BKN020 620208 QNH2996INS TX01/1315Z TNM06/1304Z
No reported NOTAMs for that airfield.



MET'MAP, your aeronautical weather chart ! - Copyright ORBIFLY December 2007 - Disclaimer

ORBIFLY MET'MAP TEAM :

Programming & Development : Alexandra Zaïnal
Concept & Development : Baudouin d'Aumeries
Co-Development & Prog : Marc-Olivier Méhu
Technical & hardware support : Manuel Goepfert

Contact : metmap@orbifly.com




SOURCES & CREDITS :

   NOAA